sensor_id;sensor_type;location;lat;lon;timestamp;P1;durP1;ratioP1;P2;durP2;ratioP2
70247;SDS011;57641;51.416;5.506;2022-09-09T00:01:33;1.70;;;1.42;;
70247;SDS011;57641;51.416;5.506;2022-09-09T00:09:28;8.43;;;1.77;;
70247;SDS011;57641;51.416;5.506;2022-09-09T00:11:58;1.83;;;1.40;;
70247;SDS011;57641;51.416;5.506;2022-09-09T00:17:06;2.78;;;1.30;;
70247;SDS011;57641;51.416;5.506;2022-09-09T00:22:17;4.13;;;1.30;;
70247;SDS011;57641;51.416;5.506;2022-09-09T00:24:46;3.47;;;1.23;;
70247;SDS011;57641;51.416;5.506;2022-09-09T00:27:19;2.72;;;1.35;;
70247;SDS011;57641;51.416;5.506;2022-09-09T00:30:14;5.72;;;1.20;;
70247;SDS011;57641;51.416;5.506;2022-09-09T00:32:41;5.00;;;1.52;;
70247;SDS011;57641;51.416;5.506;2022-09-09T00:35:24;2.85;;;1.40;;
70247;SDS011;57641;51.416;5.506;2022-09-09T00:37:55;2.97;;;1.10;;
70247;SDS011;57641;51.416;5.506;2022-09-09T00:40:39;1.20;;;1.10;;
70247;SDS011;57641;51.416;5.506;2022-09-09T00:46:21;2.40;;;1.10;;
70247;SDS011;57641;51.416;5.506;2022-09-09T00:51:56;1.42;;;1.30;;
70247;SDS011;57641;51.416;5.506;2022-09-09T00:59:50;4.20;;;1.02;;
70247;SDS011;57641;51.416;5.506;2022-09-09T01:02:31;3.30;;;1.20;;
70247;SDS011;57641;51.416;5.506;2022-09-09T01:05:13;1.50;;;0.88;;
70247;SDS011;57641;51.416;5.506;2022-09-09T01:07:55;2.65;;;1.20;;
70247;SDS011;57641;51.416;5.506;2022-09-09T01:10:39;1.70;;;1.05;;
70247;SDS011;57641;51.416;5.506;2022-09-09T01:13:22;1.77;;;1.00;;
70247;SDS011;57641;51.416;5.506;2022-09-09T01:15:51;5.20;;;1.40;;
70247;SDS011;57641;51.416;5.506;2022-09-09T01:18:23;3.13;;;0.93;;
70247;SDS011;57641;51.416;5.506;2022-09-09T01:26:45;1.85;;;0.95;;
70247;SDS011;57641;51.416;5.506;2022-09-09T01:29:13;4.32;;;1.23;;
70247;SDS011;57641;51.416;5.506;2022-09-09T01:31:42;1.65;;;1.02;;
70247;SDS011;57641;51.416;5.506;2022-09-09T01:34:17;2.67;;;1.05;;
70247;SDS011;57641;51.416;5.506;2022-09-09T01:36:45;3.05;;;1.08;;
70247;SDS011;57641;51.416;5.506;2022-09-09T01:39:18;2.05;;;1.40;;
70247;SDS011;57641;51.416;5.506;2022-09-09T01:41:45;2.65;;;0.98;;
70247;SDS011;57641;51.416;5.506;2022-09-09T01:44:11;1.45;;;0.98;;
70247;SDS011;57641;51.416;5.506;2022-09-09T01:46:37;2.15;;;1.00;;
70247;SDS011;57641;51.416;5.506;2022-09-09T01:49:03;2.92;;;1.05;;
70247;SDS011;57641;51.416;5.506;2022-09-09T01:51:32;1.35;;;1.08;;
70247;SDS011;57641;51.416;5.506;2022-09-09T01:53:58;2.88;;;1.30;;
70247;SDS011;57641;51.416;5.506;2022-09-09T01:56:29;3.08;;;1.13;;
70247;SDS011;57641;51.416;5.506;2022-09-09T02:02:03;2.03;;;1.10;;
70247;SDS011;57641;51.416;5.506;2022-09-09T02:07:03;1.20;;;1.10;;
70247;SDS011;57641;51.416;5.506;2022-09-09T02:09:40;2.40;;;1.05;;
70247;SDS011;57641;51.416;5.506;2022-09-09T02:12:11;4.07;;;1.40;;
70247;SDS011;57641;51.416;5.506;2022-09-09T02:14:45;4.28;;;1.33;;
70247;SDS011;57641;51.416;5.506;2022-09-09T02:17:17;1.73;;;1.17;;
70247;SDS011;57641;51.416;5.506;2022-09-09T02:19:49;4.15;;;1.20;;
70247;SDS011;57641;51.416;5.506;2022-09-09T02:22:20;4.32;;;1.42;;
70247;SDS011;57641;51.416;5.506;2022-09-09T02:24:49;2.53;;;1.30;;
70247;SDS011;57641;51.416;5.506;2022-09-09T02:27:18;2.28;;;1.20;;
70247;SDS011;57641;51.416;5.506;2022-09-09T02:29:45;3.30;;;1.38;;
70247;SDS011;57641;51.416;5.506;2022-09-09T02:32:13;2.92;;;1.30;;
70247;SDS011;57641;51.416;5.506;2022-09-09T02:34:47;2.97;;;1.33;;
70247;SDS011;57641;51.416;5.506;2022-09-09T02:37:20;3.47;;;1.20;;
70247;SDS011;57641;51.416;5.506;2022-09-09T02:39:50;3.20;;;1.17;;
70247;SDS011;57641;51.416;5.506;2022-09-09T02:42:16;2.50;;;1.50;;
70247;SDS011;57641;51.416;5.506;2022-09-09T02:44:42;2.75;;;1.40;;
70247;SDS011;57641;51.416;5.506;2022-09-09T02:47:15;2.13;;;1.10;;
70247;SDS011;57641;51.416;5.506;2022-09-09T02:49:49;3.92;;;1.00;;
70247;SDS011;57641;51.416;5.506;2022-09-09T02:55:26;3.63;;;1.20;;
70247;SDS011;57641;51.416;5.506;2022-09-09T02:58:05;4.30;;;1.33;;
70247;SDS011;57641;51.416;5.506;2022-09-09T03:00:35;2.15;;;0.95;;
70247;SDS011;57641;51.416;5.506;2022-09-09T03:03:03;2.75;;;1.20;;
70247;SDS011;57641;51.416;5.506;2022-09-09T03:05:28;3.15;;;1.20;;
70247;SDS011;57641;51.416;5.506;2022-09-09T03:07:54;3.25;;;1.00;;
70247;SDS011;57641;51.416;5.506;2022-09-09T03:10:19;4.05;;;1.30;;
70247;SDS011;57641;51.416;5.506;2022-09-09T03:12:45;2.13;;;1.10;;
70247;SDS011;57641;51.416;5.506;2022-09-09T03:15:10;3.20;;;0.95;;
70247;SDS011;57641;51.416;5.506;2022-09-09T03:17:36;3.55;;;1.20;;
70247;SDS011;57641;51.416;5.506;2022-09-09T03:20:03;2.75;;;1.27;;
70247;SDS011;57641;51.416;5.506;2022-09-09T03:22:29;1.70;;;1.08;;
70247;SDS011;57641;51.416;5.506;2022-09-09T03:24:54;3.20;;;1.25;;
70247;SDS011;57641;51.416;5.506;2022-09-09T03:27:20;2.67;;;1.40;;
70247;SDS011;57641;51.416;5.506;2022-09-09T03:29:46;2.65;;;1.30;;
70247;SDS011;57641;51.416;5.506;2022-09-09T03:32:11;2.70;;;1.63;;
70247;SDS011;57641;51.416;5.506;2022-09-09T03:34:38;4.75;;;1.20;;
70247;SDS011;57641;51.416;5.506;2022-09-09T03:37:06;3.05;;;1.20;;
70247;SDS011;57641;51.416;5.506;2022-09-09T03:39:31;6.45;;;1.52;;
70247;SDS011;57641;51.416;5.506;2022-09-09T03:41:57;3.67;;;1.10;;
70247;SDS011;57641;51.416;5.506;2022-09-09T03:44:22;4.15;;;1.42;;
70247;SDS011;57641;51.416;5.506;2022-09-09T03:46:48;3.70;;;1.20;;
70247;SDS011;57641;51.416;5.506;2022-09-09T03:49:13;1.77;;;1.15;;
70247;SDS011;57641;51.416;5.506;2022-09-09T03:51:38;3.00;;;1.08;;
70247;SDS011;57641;51.416;5.506;2022-09-09T03:54:05;3.40;;;1.10;;
70247;SDS011;57641;51.416;5.506;2022-09-09T03:56:33;2.17;;;1.10;;
70247;SDS011;57641;51.416;5.506;2022-09-09T03:59:00;5.25;;;1.25;;
70247;SDS011;57641;51.416;5.506;2022-09-09T04:01:25;3.88;;;1.45;;
70247;SDS011;57641;51.416;5.506;2022-09-09T04:03:51;4.65;;;1.75;;
70247;SDS011;57641;51.416;5.506;2022-09-09T04:06:17;4.47;;;1.40;;
70247;SDS011;57641;51.416;5.506;2022-09-09T04:08:46;7.50;;;1.70;;
70247;SDS011;57641;51.416;5.506;2022-09-09T04:11:14;4.25;;;1.33;;
70247;SDS011;57641;51.416;5.506;2022-09-09T04:13:40;6.15;;;1.88;;
70247;SDS011;57641;51.416;5.506;2022-09-09T04:16:07;3.75;;;1.73;;
70247;SDS011;57641;51.416;5.506;2022-09-09T04:18:34;5.60;;;1.30;;
70247;SDS011;57641;51.416;5.506;2022-09-09T04:21:00;2.65;;;1.35;;
70247;SDS011;57641;51.416;5.506;2022-09-09T04:23:26;6.75;;;1.85;;
70247;SDS011;57641;51.416;5.506;2022-09-09T04:25:54;3.60;;;1.60;;
70247;SDS011;57641;51.416;5.506;2022-09-09T04:28:22;5.03;;;1.40;;
70247;SDS011;57641;51.416;5.506;2022-09-09T04:30:50;1.70;;;1.30;;
70247;SDS011;57641;51.416;5.506;2022-09-09T04:33:17;3.65;;;1.58;;
70247;SDS011;57641;51.416;5.506;2022-09-09T04:35:45;4.40;;;1.45;;
70247;SDS011;57641;51.416;5.506;2022-09-09T04:38:12;5.35;;;1.92;;
70247;SDS011;57641;51.416;5.506;2022-09-09T04:40:39;5.32;;;1.60;;
70247;SDS011;57641;51.416;5.506;2022-09-09T04:43:07;4.28;;;2.08;;
70247;SDS011;57641;51.416;5.506;2022-09-09T04:45:33;5.28;;;1.60;;
70247;SDS011;57641;51.416;5.506;2022-09-09T04:47:58;4.38;;;1.55;;
70247;SDS011;57641;51.416;5.506;2022-09-09T04:50:24;3.42;;;1.48;;
70247;SDS011;57641;51.416;5.506;2022-09-09T04:52:50;3.00;;;1.45;;
70247;SDS011;57641;51.416;5.506;2022-09-09T04:55:16;3.63;;;1.58;;
70247;SDS011;57641;51.416;5.506;2022-09-09T04:57:41;4.30;;;1.67;;
70247;SDS011;57641;51.416;5.506;2022-09-09T05:00:07;4.65;;;1.50;;
70247;SDS011;57641;51.416;5.506;2022-09-09T05:02:38;4.80;;;1.95;;
70247;SDS011;57641;51.416;5.506;2022-09-09T05:05:04;9.55;;;1.70;;
70247;SDS011;57641;51.416;5.506;2022-09-09T05:07:30;3.95;;;1.58;;
70247;SDS011;57641;51.416;5.506;2022-09-09T05:09:56;5.95;;;1.92;;
70247;SDS011;57641;51.416;5.506;2022-09-09T05:12:22;5.40;;;1.85;;
70247;SDS011;57641;51.416;5.506;2022-09-09T05:14:50;5.72;;;1.83;;
70247;SDS011;57641;51.416;5.506;2022-09-09T05:17:17;4.95;;;1.60;;
70247;SDS011;57641;51.416;5.506;2022-09-09T05:19:43;6.85;;;1.83;;
70247;SDS011;57641;51.416;5.506;2022-09-09T05:22:09;5.20;;;1.60;;
70247;SDS011;57641;51.416;5.506;2022-09-09T05:24:36;7.03;;;1.88;;
70247;SDS011;57641;51.416;5.506;2022-09-09T05:27:01;4.57;;;1.70;;
70247;SDS011;57641;51.416;5.506;2022-09-09T05:29:28;3.97;;;1.77;;
70247;SDS011;57641;51.416;5.506;2022-09-09T05:31:53;1.92;;;1.35;;
70247;SDS011;57641;51.416;5.506;2022-09-09T05:34:19;5.78;;;2.05;;
70247;SDS011;57641;51.416;5.506;2022-09-09T05:36:45;4.75;;;1.60;;
70247;SDS011;57641;51.416;5.506;2022-09-09T05:39:12;2.63;;;1.48;;
70247;SDS011;57641;51.416;5.506;2022-09-09T05:41:37;8.45;;;1.77;;
70247;SDS011;57641;51.416;5.506;2022-09-09T05:44:03;5.25;;;1.30;;
70247;SDS011;57641;51.416;5.506;2022-09-09T05:46:29;11.18;;;1.90;;
70247;SDS011;57641;51.416;5.506;2022-09-09T05:48:55;6.18;;;1.90;;
70247;SDS011;57641;51.416;5.506;2022-09-09T05:51:24;7.25;;;2.05;;
70247;SDS011;57641;51.416;5.506;2022-09-09T05:53:53;6.45;;;1.75;;
70247;SDS011;57641;51.416;5.506;2022-09-09T05:56:21;8.48;;;2.33;;
70247;SDS011;57641;51.416;5.506;2022-09-09T05:58:50;6.05;;;1.77;;
70247;SDS011;57641;51.416;5.506;2022-09-09T06:01:17;8.57;;;2.22;;
70247;SDS011;57641;51.416;5.506;2022-09-09T06:03:45;9.88;;;2.45;;
70247;SDS011;57641;51.416;5.506;2022-09-09T06:06:13;5.57;;;1.77;;
70247;SDS011;57641;51.416;5.506;2022-09-09T06:08:42;6.28;;;1.83;;
70247;SDS011;57641;51.416;5.506;2022-09-09T06:11:10;9.95;;;1.77;;
70247;SDS011;57641;51.416;5.506;2022-09-09T06:13:38;4.35;;;1.73;;
70247;SDS011;57641;51.416;5.506;2022-09-09T06:16:15;5.82;;;1.67;;
70247;SDS011;57641;51.416;5.506;2022-09-09T06:18:42;6.20;;;1.85;;
70247;SDS011;57641;51.416;5.506;2022-09-09T06:21:15;9.85;;;2.83;;
70247;SDS011;57641;51.416;5.506;2022-09-09T06:27:59;8.48;;;2.30;;
70247;SDS011;57641;51.416;5.506;2022-09-09T06:30:25;7.03;;;2.40;;
70247;SDS011;57641;51.416;5.506;2022-09-09T06:32:50;7.60;;;2.55;;
70247;SDS011;57641;51.416;5.506;2022-09-09T06:35:16;4.47;;;1.85;;
70247;SDS011;57641;51.416;5.506;2022-09-09T06:37:45;8.32;;;2.47;;
70247;SDS011;57641;51.416;5.506;2022-09-09T06:40:13;5.75;;;2.25;;
70247;SDS011;57641;51.416;5.506;2022-09-09T06:42:40;8.40;;;2.10;;
70247;SDS011;57641;51.416;5.506;2022-09-09T06:45:06;4.13;;;2.20;;
70247;SDS011;57641;51.416;5.506;2022-09-09T06:47:36;7.15;;;2.20;;
70247;SDS011;57641;51.416;5.506;2022-09-09T06:50:05;6.78;;;2.25;;
70247;SDS011;57641;51.416;5.506;2022-09-09T06:52:35;9.63;;;3.33;;
70247;SDS011;57641;51.416;5.506;2022-09-09T06:55:03;5.82;;;2.33;;
70247;SDS011;57641;51.416;5.506;2022-09-09T06:57:29;7.38;;;2.15;;
70247;SDS011;57641;51.416;5.506;2022-09-09T06:59:54;8.57;;;2.50;;
70247;SDS011;57641;51.416;5.506;2022-09-09T07:02:20;5.32;;;2.35;;
70247;SDS011;57641;51.416;5.506;2022-09-09T07:04:47;8.77;;;2.70;;
70247;SDS011;57641;51.416;5.506;2022-09-09T07:07:12;8.15;;;2.58;;
70247;SDS011;57641;51.416;5.506;2022-09-09T07:09:40;10.95;;;2.92;;
70247;SDS011;57641;51.416;5.506;2022-09-09T07:12:06;6.15;;;2.30;;
70247;SDS011;57641;51.416;5.506;2022-09-09T07:14:35;6.53;;;2.65;;
70247;SDS011;57641;51.416;5.506;2022-09-09T07:17:02;6.13;;;2.30;;
70247;SDS011;57641;51.416;5.506;2022-09-09T07:19:28;7.13;;;2.25;;
70247;SDS011;57641;51.416;5.506;2022-09-09T07:21:54;8.07;;;2.25;;
70247;SDS011;57641;51.416;5.506;2022-09-09T07:24:19;7.25;;;2.45;;
70247;SDS011;57641;51.416;5.506;2022-09-09T07:26:46;5.97;;;2.10;;
70247;SDS011;57641;51.416;5.506;2022-09-09T07:29:13;7.30;;;2.38;;
70247;SDS011;57641;51.416;5.506;2022-09-09T07:31:39;8.55;;;1.90;;
70247;SDS011;57641;51.416;5.506;2022-09-09T07:34:10;6.85;;;2.10;;
70247;SDS011;57641;51.416;5.506;2022-09-09T07:36:39;9.30;;;2.30;;
70247;SDS011;57641;51.416;5.506;2022-09-09T07:39:06;6.13;;;2.10;;
70247;SDS011;57641;51.416;5.506;2022-09-09T07:41:47;9.48;;;2.10;;
70247;SDS011;57641;51.416;5.506;2022-09-09T07:44:18;7.90;;;1.88;;
70247;SDS011;57641;51.416;5.506;2022-09-09T07:46:52;4.93;;;2.00;;
70247;SDS011;57641;51.416;5.506;2022-09-09T07:49:18;8.30;;;2.60;;
70247;SDS011;57641;51.416;5.506;2022-09-09T07:51:45;6.30;;;2.17;;
70247;SDS011;57641;51.416;5.506;2022-09-09T07:54:14;3.60;;;1.80;;
70247;SDS011;57641;51.416;5.506;2022-09-09T07:56:41;7.00;;;1.92;;
70247;SDS011;57641;51.416;5.506;2022-09-09T07:59:07;8.32;;;2.00;;
70247;SDS011;57641;51.416;5.506;2022-09-09T08:01:36;10.93;;;2.60;;
70247;SDS011;57641;51.416;5.506;2022-09-09T08:04:05;6.15;;;2.25;;
70247;SDS011;57641;51.416;5.506;2022-09-09T08:06:43;7.95;;;2.10;;
70247;SDS011;57641;51.416;5.506;2022-09-09T08:09:12;5.25;;;2.17;;
70247;SDS011;57641;51.416;5.506;2022-09-09T08:11:39;5.30;;;1.90;;
70247;SDS011;57641;51.416;5.506;2022-09-09T08:14:06;5.03;;;1.50;;
70247;SDS011;57641;51.416;5.506;2022-09-09T08:16:35;9.32;;;2.15;;
70247;SDS011;57641;51.416;5.506;2022-09-09T08:19:03;9.38;;;2.38;;
70247;SDS011;57641;51.416;5.506;2022-09-09T08:21:31;5.53;;;1.98;;
70247;SDS011;57641;51.416;5.506;2022-09-09T08:23:58;6.03;;;1.90;;
70247;SDS011;57641;51.416;5.506;2022-09-09T08:26:29;3.80;;;1.88;;
70247;SDS011;57641;51.416;5.506;2022-09-09T08:28:57;4.63;;;1.80;;
70247;SDS011;57641;51.416;5.506;2022-09-09T08:31:34;5.85;;;1.67;;
70247;SDS011;57641;51.416;5.506;2022-09-09T08:34:03;5.85;;;1.85;;
70247;SDS011;57641;51.416;5.506;2022-09-09T08:36:34;5.22;;;1.67;;
70247;SDS011;57641;51.416;5.506;2022-09-09T08:39:06;6.45;;;2.17;;
70247;SDS011;57641;51.416;5.506;2022-09-09T08:41:39;8.00;;;1.88;;
70247;SDS011;57641;51.416;5.506;2022-09-09T08:52:22;6.75;;;1.60;;
70247;SDS011;57641;51.416;5.506;2022-09-09T08:54:52;8.13;;;1.80;;
70247;SDS011;57641;51.416;5.506;2022-09-09T08:57:38;8.25;;;1.55;;
70247;SDS011;57641;51.416;5.506;2022-09-09T09:00:04;8.20;;;1.98;;
70247;SDS011;57641;51.416;5.506;2022-09-09T09:05:26;6.07;;;2.25;;
70247;SDS011;57641;51.416;5.506;2022-09-09T09:08:03;3.42;;;1.70;;
70247;SDS011;57641;51.416;5.506;2022-09-09T09:10:49;5.22;;;1.63;;
70247;SDS011;57641;51.416;5.506;2022-09-09T09:15:50;5.55;;;1.88;;
70247;SDS011;57641;51.416;5.506;2022-09-09T09:18:21;4.88;;;1.40;;
70247;SDS011;57641;51.416;5.506;2022-09-09T09:20:53;5.18;;;1.70;;
70247;SDS011;57641;51.416;5.506;2022-09-09T09:23:35;4.57;;;1.70;;
70247;SDS011;57641;51.416;5.506;2022-09-09T09:26:29;4.20;;;1.67;;
70247;SDS011;57641;51.416;5.506;2022-09-09T09:31:28;7.63;;;1.90;;
70247;SDS011;57641;51.416;5.506;2022-09-09T09:33:56;6.50;;;1.50;;
70247;SDS011;57641;51.416;5.506;2022-09-09T09:36:33;4.80;;;2.03;;
70247;SDS011;57641;51.416;5.506;2022-09-09T09:39:07;5.70;;;1.98;;
70247;SDS011;57641;51.416;5.506;2022-09-09T09:41:36;4.78;;;1.08;;
70247;SDS011;57641;51.416;5.506;2022-09-09T09:44:26;6.88;;;1.65;;
70247;SDS011;57641;51.416;5.506;2022-09-09T09:47:08;6.00;;;1.75;;
70247;SDS011;57641;51.416;5.506;2022-09-09T09:49:38;6.65;;;1.60;;
70247;SDS011;57641;51.416;5.506;2022-09-09T09:52:05;3.67;;;1.52;;
70247;SDS011;57641;51.416;5.506;2022-09-09T09:54:39;6.20;;;1.60;;
70247;SDS011;57641;51.416;5.506;2022-09-09T09:57:14;6.93;;;1.80;;
70247;SDS011;57641;51.416;5.506;2022-09-09T09:59:42;3.65;;;2.10;;
70247;SDS011;57641;51.416;5.506;2022-09-09T10:02:19;7.88;;;2.33;;
70247;SDS011;57641;51.416;5.506;2022-09-09T10:07:27;5.63;;;1.52;;
70247;SDS011;57641;51.416;5.506;2022-09-09T10:09:57;7.47;;;2.15;;
70247;SDS011;57641;51.416;5.506;2022-09-09T10:34:55;7.50;;;2.45;;
70247;SDS011;57641;51.416;5.506;2022-09-09T10:46:39;8.48;;;2.60;;
70247;SDS011;57641;51.416;5.506;2022-09-09T10:54:51;10.20;;;2.45;;
70247;SDS011;57641;51.416;5.506;2022-09-09T10:57:29;5.28;;;2.22;;
70247;SDS011;57641;51.416;5.506;2022-09-09T11:00:05;7.25;;;2.30;;
70247;SDS011;57641;51.416;5.506;2022-09-09T11:02:57;7.30;;;2.33;;
70247;SDS011;57641;51.416;5.506;2022-09-09T11:05:31;5.50;;;2.05;;
70247;SDS011;57641;51.416;5.506;2022-09-09T11:08:09;8.82;;;2.42;;
70247;SDS011;57641;51.416;5.506;2022-09-09T11:10:39;6.75;;;2.47;;
70247;SDS011;57641;51.416;5.506;2022-09-09T11:18:59;5.32;;;2.20;;
70247;SDS011;57641;51.416;5.506;2022-09-09T11:21:42;5.75;;;2.00;;
70247;SDS011;57641;51.416;5.506;2022-09-09T11:24:22;3.58;;;1.90;;
70247;SDS011;57641;51.416;5.506;2022-09-09T11:27:01;6.03;;;2.00;;
70247;SDS011;57641;51.416;5.506;2022-09-09T11:29:52;4.80;;;1.83;;
70247;SDS011;57641;51.416;5.506;2022-09-09T11:35:33;2.75;;;1.60;;
70247;SDS011;57641;51.416;5.506;2022-09-09T11:38:19;5.85;;;1.73;;
70247;SDS011;57641;51.416;5.506;2022-09-09T11:41:06;6.13;;;2.08;;
70247;SDS011;57641;51.416;5.506;2022-09-09T11:43:40;7.15;;;1.70;;
70247;SDS011;57641;51.416;5.506;2022-09-09T11:46:08;5.03;;;1.60;;
70247;SDS011;57641;51.416;5.506;2022-09-09T11:48:45;3.90;;;1.75;;
70247;SDS011;57641;51.416;5.506;2022-09-09T11:51:27;6.40;;;2.40;;
70247;SDS011;57641;51.416;5.506;2022-09-09T11:54:04;5.68;;;1.70;;
70247;SDS011;57641;51.416;5.506;2022-09-09T11:57:00;5.70;;;1.70;;
70247;SDS011;57641;51.416;5.506;2022-09-09T11:59:30;3.42;;;1.67;;
70247;SDS011;57641;51.416;5.506;2022-09-09T12:01:58;3.60;;;2.10;;
70247;SDS011;57641;51.416;5.506;2022-09-09T12:10:20;3.65;;;2.03;;
70247;SDS011;57641;51.416;5.506;2022-09-09T12:12:50;4.88;;;2.00;;
70247;SDS011;57641;51.416;5.506;2022-09-09T12:15:18;6.35;;;1.92;;
70247;SDS011;57641;51.416;5.506;2022-09-09T12:17:52;5.38;;;1.80;;
70247;SDS011;57641;51.416;5.506;2022-09-09T12:25:38;5.00;;;2.20;;
70247;SDS011;57641;51.416;5.506;2022-09-09T12:31:17;5.88;;;1.70;;
70247;SDS011;57641;51.416;5.506;2022-09-09T12:33:45;4.47;;;1.75;;
70247;SDS011;57641;51.416;5.506;2022-09-09T12:36:14;6.47;;;1.73;;
70247;SDS011;57641;51.416;5.506;2022-09-09T12:38:45;7.97;;;2.17;;
70247;SDS011;57641;51.416;5.506;2022-09-09T12:41:24;5.03;;;1.52;;
70247;SDS011;57641;51.416;5.506;2022-09-09T12:44:03;3.97;;;1.30;;
70247;SDS011;57641;51.416;5.506;2022-09-09T12:46:39;5.88;;;1.60;;
70247;SDS011;57641;51.416;5.506;2022-09-09T12:52:29;5.55;;;1.50;;
70247;SDS011;57641;51.416;5.506;2022-09-09T12:55:00;4.78;;;1.63;;
70247;SDS011;57641;51.416;5.506;2022-09-09T12:57:33;6.40;;;1.88;;
70247;SDS011;57641;51.416;5.506;2022-09-09T13:00:21;7.53;;;1.67;;
70247;SDS011;57641;51.416;5.506;2022-09-09T13:02:51;6.93;;;1.38;;
70247;SDS011;57641;51.416;5.506;2022-09-09T13:05:24;3.83;;;1.42;;
70247;SDS011;57641;51.416;5.506;2022-09-09T13:08:08;4.38;;;1.48;;
70247;SDS011;57641;51.416;5.506;2022-09-09T13:10:38;7.35;;;1.75;;
70247;SDS011;57641;51.416;5.506;2022-09-09T13:13:19;5.32;;;1.50;;
70247;SDS011;57641;51.416;5.506;2022-09-09T13:15:52;3.78;;;1.45;;
70247;SDS011;57641;51.416;5.506;2022-09-09T13:18:23;4.15;;;1.42;;
70247;SDS011;57641;51.416;5.506;2022-09-09T13:20:54;3.75;;;1.25;;
70247;SDS011;57641;51.416;5.506;2022-09-09T13:23:23;3.38;;;1.30;;
70247;SDS011;57641;51.416;5.506;2022-09-09T13:26:41;3.72;;;1.50;;
70247;SDS011;57641;51.416;5.506;2022-09-09T13:28:51;3.65;;;1.40;;
70247;SDS011;57641;51.416;5.506;2022-09-09T13:31:20;3.70;;;1.23;;
70247;SDS011;57641;51.416;5.506;2022-09-09T13:33:54;4.05;;;1.50;;
70247;SDS011;57641;51.416;5.506;2022-09-09T13:36:31;3.72;;;1.15;;
70247;SDS011;57641;51.416;5.506;2022-09-09T13:38:59;3.38;;;1.20;;
70247;SDS011;57641;51.416;5.506;2022-09-09T13:43:54;4.30;;;1.10;;
70247;SDS011;57641;51.416;5.506;2022-09-09T13:46:39;5.20;;;1.10;;
70247;SDS011;57641;51.416;5.506;2022-09-09T13:51:42;4.60;;;1.20;;
70247;SDS011;57641;51.416;5.506;2022-09-09T13:54:11;2.50;;;1.20;;
70247;SDS011;57641;51.416;5.506;2022-09-09T13:56:38;3.25;;;1.30;;
70247;SDS011;57641;51.416;5.506;2022-09-09T13:59:12;6.22;;;1.45;;
70247;SDS011;57641;51.416;5.506;2022-09-09T14:01:40;2.83;;;1.00;;
70247;SDS011;57641;51.416;5.506;2022-09-09T14:04:06;3.10;;;1.20;;
70247;SDS011;57641;51.416;5.506;2022-09-09T14:06:37;3.78;;;1.10;;
70247;SDS011;57641;51.416;5.506;2022-09-09T14:09:05;2.17;;;1.10;;
70247;SDS011;57641;51.416;5.506;2022-09-09T14:11:32;2.78;;;1.10;;
70247;SDS011;57641;51.416;5.506;2022-09-09T14:13:58;1.77;;;0.85;;
70247;SDS011;57641;51.416;5.506;2022-09-09T14:16:26;2.30;;;1.00;;
70247;SDS011;57641;51.416;5.506;2022-09-09T14:18:53;3.38;;;1.10;;
70247;SDS011;57641;51.416;5.506;2022-09-09T14:21:21;3.30;;;1.30;;
70247;SDS011;57641;51.416;5.506;2022-09-09T14:23:51;4.35;;;1.33;;
70247;SDS011;57641;51.416;5.506;2022-09-09T14:26:21;3.90;;;1.30;;
70247;SDS011;57641;51.416;5.506;2022-09-09T14:28:49;2.67;;;1.30;;
70247;SDS011;57641;51.416;5.506;2022-09-09T14:31:16;5.47;;;1.50;;
70247;SDS011;57641;51.416;5.506;2022-09-09T14:33:44;2.58;;;0.70;;
70247;SDS011;57641;51.416;5.506;2022-09-09T14:36:11;2.17;;;0.88;;
70247;SDS011;57641;51.416;5.506;2022-09-09T14:38:40;3.17;;;1.38;;
70247;SDS011;57641;51.416;5.506;2022-09-09T14:41:07;2.40;;;1.02;;
70247;SDS011;57641;51.416;5.506;2022-09-09T14:43:37;2.85;;;1.38;;
70247;SDS011;57641;51.416;5.506;2022-09-09T14:46:10;3.35;;;1.38;;
70247;SDS011;57641;51.416;5.506;2022-09-09T14:48:37;2.35;;;1.00;;
70247;SDS011;57641;51.416;5.506;2022-09-09T14:51:09;4.07;;;1.30;;
70247;SDS011;57641;51.416;5.506;2022-09-09T14:53:51;5.22;;;1.08;;
70247;SDS011;57641;51.416;5.506;2022-09-09T14:56:22;5.05;;;1.23;;
70247;SDS011;57641;51.416;5.506;2022-09-09T14:58:50;3.40;;;1.20;;
70247;SDS011;57641;51.416;5.506;2022-09-09T15:01:17;2.55;;;1.00;;
70247;SDS011;57641;51.416;5.506;2022-09-09T15:03:49;3.15;;;1.20;;
70247;SDS011;57641;51.416;5.506;2022-09-09T15:06:37;0.88;;;0.82;;
70247;SDS011;57641;51.416;5.506;2022-09-09T15:09:04;2.47;;;1.17;;
70247;SDS011;57641;51.416;5.506;2022-09-09T15:11:34;2.47;;;0.93;;
70247;SDS011;57641;51.416;5.506;2022-09-09T15:14:05;2.40;;;0.90;;
70247;SDS011;57641;51.416;5.506;2022-09-09T15:16:32;2.88;;;0.73;;
70247;SDS011;57641;51.416;5.506;2022-09-09T15:19:01;2.78;;;1.15;;
70247;SDS011;57641;51.416;5.506;2022-09-09T15:21:28;1.92;;;1.10;;
70247;SDS011;57641;51.416;5.506;2022-09-09T15:23:57;3.13;;;1.10;;
70247;SDS011;57641;51.416;5.506;2022-09-09T15:26:24;3.15;;;0.90;;
70247;SDS011;57641;51.416;5.506;2022-09-09T15:28:54;2.28;;;1.00;;
70247;SDS011;57641;51.416;5.506;2022-09-09T15:31:24;3.47;;;1.15;;
70247;SDS011;57641;51.416;5.506;2022-09-09T15:33:56;1.88;;;0.90;;
70247;SDS011;57641;51.416;5.506;2022-09-09T15:36:34;5.43;;;1.13;;
70247;SDS011;57641;51.416;5.506;2022-09-09T15:39:04;4.03;;;1.00;;
70247;SDS011;57641;51.416;5.506;2022-09-09T15:41:37;2.42;;;0.95;;
70247;SDS011;57641;51.416;5.506;2022-09-09T15:44:08;2.47;;;0.82;;
70247;SDS011;57641;51.416;5.506;2022-09-09T15:46:43;2.92;;;1.00;;
70247;SDS011;57641;51.416;5.506;2022-09-09T15:49:11;2.20;;;0.70;;
70247;SDS011;57641;51.416;5.506;2022-09-09T15:51:44;3.22;;;0.95;;
70247;SDS011;57641;51.416;5.506;2022-09-09T15:54:16;3.30;;;1.02;;
70247;SDS011;57641;51.416;5.506;2022-09-09T15:56:44;5.38;;;1.45;;
70247;SDS011;57641;51.416;5.506;2022-09-09T15:59:11;3.10;;;1.10;;
70247;SDS011;57641;51.416;5.506;2022-09-09T16:01:37;6.85;;;1.40;;
70247;SDS011;57641;51.416;5.506;2022-09-09T16:04:04;4.03;;;1.13;;
70247;SDS011;57641;51.416;5.506;2022-09-09T16:06:31;3.60;;;1.10;;
70247;SDS011;57641;51.416;5.506;2022-09-09T16:08:59;4.18;;;1.30;;
70247;SDS011;57641;51.416;5.506;2022-09-09T16:11:29;2.13;;;1.10;;
70247;SDS011;57641;51.416;5.506;2022-09-09T16:13:58;2.70;;;1.40;;
70247;SDS011;57641;51.416;5.506;2022-09-09T16:16:26;1.20;;;1.00;;
70247;SDS011;57641;51.416;5.506;2022-09-09T16:18:55;4.18;;;1.45;;
70247;SDS011;57641;51.416;5.506;2022-09-09T16:21:24;4.72;;;1.38;;
70247;SDS011;57641;51.416;5.506;2022-09-09T16:23:55;4.60;;;1.00;;
70247;SDS011;57641;51.416;5.506;2022-09-09T16:26:22;2.63;;;1.15;;
70247;SDS011;57641;51.416;5.506;2022-09-09T16:28:49;3.17;;;1.20;;
70247;SDS011;57641;51.416;5.506;2022-09-09T16:31:17;2.30;;;1.15;;
70247;SDS011;57641;51.416;5.506;2022-09-09T16:33:45;7.40;;;2.25;;
70247;SDS011;57641;51.416;5.506;2022-09-09T16:36:23;6.70;;;1.95;;
70247;SDS011;57641;51.416;5.506;2022-09-09T16:38:52;6.80;;;2.10;;
70247;SDS011;57641;51.416;5.506;2022-09-09T16:41:26;6.72;;;2.10;;
70247;SDS011;57641;51.416;5.506;2022-09-09T16:43:57;5.85;;;1.83;;
70247;SDS011;57641;51.416;5.506;2022-09-09T16:46:24;3.35;;;1.73;;
70247;SDS011;57641;51.416;5.506;2022-09-09T16:48:52;2.60;;;1.08;;
70247;SDS011;57641;51.416;5.506;2022-09-09T16:51:22;5.47;;;1.33;;
70247;SDS011;57641;51.416;5.506;2022-09-09T16:53:49;5.35;;;0.90;;
70247;SDS011;57641;51.416;5.506;2022-09-09T16:56:21;2.40;;;1.05;;
70247;SDS011;57641;51.416;5.506;2022-09-09T16:58:51;1.65;;;0.80;;
70247;SDS011;57641;51.416;5.506;2022-09-09T17:01:21;3.03;;;0.70;;
70247;SDS011;57641;51.416;5.506;2022-09-09T17:03:51;3.65;;;0.65;;
70247;SDS011;57641;51.416;5.506;2022-09-09T17:06:19;2.65;;;0.70;;
70247;SDS011;57641;51.416;5.506;2022-09-09T17:08:45;2.92;;;0.90;;
70247;SDS011;57641;51.416;5.506;2022-09-09T17:11:17;1.70;;;0.60;;
70247;SDS011;57641;51.416;5.506;2022-09-09T17:13:45;2.00;;;0.90;;
70247;SDS011;57641;51.416;5.506;2022-09-09T17:16:14;2.00;;;1.15;;